Time;durP1;ratioP1;P1;durP2;ratioP2;P2;SDS_P1;SDS_P2;PMS_P1;PMS_P2;Temp;Humidity;BMP_temperature;BMP_pressure;BME280_temperature;BME280_humidity;BME280_pressure;Samples;Min_cycle;Max_cycle;Signal;HPM_P1;HPM_P2
2022/04/20 00:01:35;;;;;;;6.50;2.28;;;8.40;82.90;;;;;;5020542;28;20603;-65
2022/04/20 00:04:01;;;;;;;3.13;2.20;;;8.40;83.60;;;;;;5005869;28;20038;-66
2022/04/20 00:06:27;;;;;;;3.58;1.88;;;8.30;85.20;;;;;;5005215;28;20056;-65
2022/04/20 00:08:53;;;;;;;2.70;1.80;;;8.40;83.90;;;;;;5006809;28;20045;-66
2022/04/20 00:11:19;;;;;;;5.40;2.20;;;8.40;85.60;;;;;;5006798;28;20046;-66
2022/04/20 00:13:44;;;;;;;1.80;1.70;;;8.30;87.50;;;;;;5007452;28;20042;-65
2022/04/20 00:16:10;;;;;;;3.15;1.90;;;8.30;83.40;;;;;;5006993;28;20058;-65
2022/04/20 00:18:36;;;;;;;4.28;2.00;;;8.30;85.70;;;;;;5006995;28;20054;-65
2022/04/20 00:21:02;;;;;;;4.57;2.20;;;8.30;88.10;;;;;;4989043;28;20161;-65
2022/04/20 00:23:28;;;;;;;2.88;2.15;;;8.20;87.10;;;;;;5006654;28;20180;-65
2022/04/20 00:25:53;;;;;;;2.47;1.75;;;8.20;89.50;;;;;;5007137;28;20041;-65
2022/04/20 00:28:19;;;;;;;2.75;1.98;;;8.10;87.90;;;;;;5006501;28;20077;-65
2022/04/20 00:30:45;;;;;;;3.95;2.20;;;8.10;87.40;;;;;;5022309;28;20088;-65
2022/04/20 00:33:11;;;;;;;2.80;1.70;;;8.10;89.60;;;;;;5021003;28;20527;-65
2022/04/20 00:35:36;;;;;;;2.97;2.15;;;8.10;90.50;;;;;;5006763;28;20081;-65
2022/04/20 00:38:02;;;;;;;2.30;1.90;;;8.00;90.80;;;;;;5005266;28;20439;-65
2022/04/20 00:40:28;;;;;;;3.45;1.60;;;8.00;91.40;;;;;;5006065;28;20132;-65
2022/04/20 00:42:54;;;;;;;3.17;2.30;;;8.00;91.10;;;;;;5021607;28;20477;-64
2022/04/20 00:45:20;;;;;;;3.03;2.03;;;8.00;90.70;;;;;;5006431;28;20035;-65
2022/04/20 00:47:45;;;;;;;2.70;1.70;;;8.00;91.10;;;;;;5007317;28;20104;-65
2022/04/20 00:50:12;;;;;;;3.88;1.80;;;7.90;90.00;;;;;;5006077;28;20065;-65
2022/04/20 00:52:38;;;;;;;3.47;1.83;;;7.90;90.50;;;;;;5006331;28;20049;-65
2022/04/20 00:55:05;;;;;;;3.28;1.80;;;7.90;90.60;;;;;;5006434;28;20034;-65
2022/04/20 00:57:32;;;;;;;5.78;2.00;;;7.90;90.70;;;;;;5004655;28;20071;-65
2022/04/20 01:00:01;;;;;;;4.57;1.90;;;7.80;90.70;;;;;;5005246;28;20057;-65
2022/04/20 01:02:31;;;;;;;3.58;2.15;;;7.80;91.60;;;;;;5019887;28;20050;-65
2022/04/20 01:04:58;;;;;;;1.90;1.70;;;7.80;91.70;;;;;;5006303;28;20057;-65
2022/04/20 01:07:24;;;;;;;8.45;2.17;;;7.80;91.20;;;;;;5004990;28;20096;-65
2022/04/20 01:09:50;;;;;;;2.03;1.77;;;7.80;91.50;;;;;;5006558;28;20088;-65
2022/04/20 01:12:17;;;;;;;6.45;1.90;;;7.80;91.50;;;;;;5005616;28;20509;-65
2022/04/20 01:14:45;;;;;;;3.05;1.88;;;7.70;92.00;;;;;;5006614;28;20034;-65
2022/04/20 01:17:10;;;;;;;2.38;2.03;;;7.70;91.60;;;;;;5007867;28;20060;-65
2022/04/20 01:19:39;;;;;;;2.55;1.70;;;7.70;92.20;;;;;;5010154;28;20489;-65
2022/04/20 01:22:07;;;;;;;1.60;1.50;;;7.70;91.90;;;;;;5010265;28;20060;-65
2022/04/20 01:24:34;;;;;;;7.80;1.98;;;7.70;91.80;;;;;;5009481;28;20034;-64
2022/04/20 01:27:01;;;;;;;1.60;1.50;;;7.70;92.30;;;;;;5009051;28;20143;-65
2022/04/20 01:29:27;;;;;;;3.28;1.42;;;7.60;92.50;;;;;;5008450;28;20462;-65
2022/04/20 01:31:53;;;;;;;1.83;1.60;;;7.60;92.60;;;;;;5010182;28;20084;-65
2022/04/20 01:34:19;;;;;;;11.30;3.35;;;7.60;92.60;;;;;;5009375;28;20041;-65
2022/04/20 01:36:44;;;;;;;2.08;1.85;;;7.60;93.10;;;;;;5024878;28;20042;-65
2022/04/20 01:39:11;;;;;;;3.28;1.98;;;7.50;94.10;;;;;;5009914;28;20053;-65
2022/04/20 01:41:37;;;;;;;2.30;1.90;;;7.50;94.30;;;;;;5008094;28;20477;-65
2022/04/20 01:44:03;;;;;;;2.17;2.00;;;7.50;94.50;;;;;;5008322;28;20497;-65
2022/04/20 01:46:29;;;;;;;9.10;1.98;;;7.50;94.80;;;;;;5009712;28;20303;-65
2022/04/20 01:48:55;;;;;;;1.90;1.80;;;7.50;94.80;;;;;;5024985;28;20403;-65
2022/04/20 01:54:06;;;;;;;3.28;2.15;;;7.50;95.20;;;;;;5007473;28;20057;-65
2022/04/20 01:56:31;;;;;;;5.57;2.35;;;7.40;95.00;;;;;;4992591;28;20491;-65
2022/04/20 01:58:57;;;;;;;4.22;1.90;;;7.40;95.40;;;;;;5007640;28;20034;-65
2022/04/20 02:04:07;;;;;;;2.85;1.60;;;7.40;94.90;;;;;;5007835;28;20049;-66
2022/04/20 02:06:33;;;;;;;3.65;1.70;;;7.40;95.20;;;;;;5008070;28;20050;-66
2022/04/20 02:08:59;;;;;;;1.90;1.80;;;7.30;95.50;;;;;;5007611;28;20045;-67
2022/04/20 02:11:25;;;;;;;2.50;1.80;;;7.20;96.20;;;;;;5009174;28;20129;-66
2022/04/20 02:13:50;;;;;;;3.60;1.73;;;7.10;96.70;;;;;;5007049;28;20188;-65
2022/04/20 02:16:16;;;;;;;3.13;2.13;;;7.10;97.30;;;;;;4991007;28;20672;-66
2022/04/20 02:18:42;;;;;;;2.45;1.88;;;7.10;97.00;;;;;;5009798;28;20463;-65
2022/04/20 02:21:08;;;;;;;4.00;1.98;;;7.00;97.90;;;;;;5008585;28;20045;-65
2022/04/20 02:23:33;;;;;;;1.98;1.65;;;7.00;97.90;;;;;;5009092;28;20145;-65
2022/04/20 02:25:59;;;;;;;4.07;2.03;;;7.00;98.60;;;;;;5023649;28;20038;-66
2022/04/20 02:28:25;;;;;;;3.88;2.33;;;6.90;98.70;;;;;;5007426;28;20080;-65
2022/04/20 02:30:50;;;;;;;2.25;1.70;;;6.90;98.30;;;;;;5009269;28;20046;-66
2022/04/20 02:33:16;;;;;;;4.78;2.08;;;6.90;98.30;;;;;;5006985;28;20132;-66
2022/04/20 02:35:42;;;;;;;6.82;2.17;;;6.90;98.60;;;;;;5007688;28;20054;-65
2022/04/20 02:38:10;;;;;;;5.88;1.90;;;6.90;98.40;;;;;;5023429;28;20042;-66
2022/04/20 02:40:39;;;;;;;3.58;2.00;;;6.90;98.50;;;;;;5007373;28;20057;-65
2022/04/20 02:43:05;;;;;;;3.67;2.03;;;6.90;99.00;;;;;;5007377;28;20046;-65
2022/04/20 02:45:31;;;;;;;2.80;2.08;;;6.90;98.70;;;;;;5008455;28;20492;-66
2022/04/20 02:47:57;;;;;;;3.20;1.70;;;6.90;98.70;;;;;;5008721;28;20033;-66
2022/04/20 02:50:23;;;;;;;6.05;2.13;;;6.90;98.40;;;;;;5007747;28;20049;-66
2022/04/20 02:52:48;;;;;;;4.00;2.50;;;6.90;98.00;;;;;;5009104;28;20081;-65
2022/04/20 02:55:14;;;;;;;1.98;1.85;;;6.90;98.80;;;;;;5006307;28;20052;-66
2022/04/20 02:57:40;;;;;;;4.25;1.95;;;6.90;99.90;;;;;;5009040;28;20080;-65
2022/04/20 03:00:06;;;;;;;3.88;2.20;;;6.90;99.90;;;;;;5006323;28;20104;-65
2022/04/20 03:02:32;;;;;;;13.35;1.90;;;7.00;99.90;;;;;;5006948;28;20045;-65
2022/04/20 03:04:58;;;;;;;5.40;2.25;;;7.00;99.90;;;;;;5007066;28;20168;-65
2022/04/20 03:07:24;;;;;;;7.75;2.30;;;7.00;99.90;;;;;;5008054;28;20121;-65
2022/04/20 03:09:50;;;;;;;6.75;2.20;;;7.00;99.90;;;;;;5006827;28;20128;-66
2022/04/20 03:12:16;;;;;;;3.10;2.33;;;7.00;99.90;;;;;;5002652;28;20080;-65
2022/04/20 03:14:41;;;;;;;5.97;2.22;;;7.00;99.90;;;;;;4989227;28;20405;-65
2022/04/20 03:17:07;;;;;;;6.07;2.20;;;7.10;99.90;;;;;;4993424;28;20405;-65
2022/04/20 03:19:33;;;;;;;2.00;1.90;;;7.00;99.90;;;;;;5006910;28;20046;-65
2022/04/20 03:21:59;;;;;;;2.30;2.10;;;7.00;99.90;;;;;;5008273;28;20554;-65
2022/04/20 03:24:25;;;;;;;3.33;2.20;;;7.00;99.90;;;;;;5007392;28;20303;-65
2022/04/20 03:26:52;;;;;;;3.10;2.20;;;7.00;99.70;;;;;;5006740;28;20492;-65
2022/04/20 03:29:18;;;;;;;4.30;1.92;;;6.90;99.20;;;;;;5007128;28;20046;-65
2022/04/20 03:31:44;;;;;;;4.53;2.30;;;7.00;98.80;;;;;;5008084;28;20416;-65
2022/04/20 03:34:11;;;;;;;5.10;2.35;;;7.00;98.80;;;;;;5020785;28;20054;-66
2022/04/20 03:36:37;;;;;;;2.72;2.30;;;6.90;98.60;;;;;;5008360;28;20970;-65
2022/04/20 03:39:04;;;;;;;2.85;2.00;;;7.00;98.60;;;;;;5006407;28;20046;-66
2022/04/20 03:41:29;;;;;;;4.10;2.15;;;7.00;97.60;;;;;;5007179;28;20058;-65
2022/04/20 03:43:55;;;;;;;2.88;2.22;;;6.90;98.60;;;;;;5007688;28;20042;-66
2022/04/20 03:46:22;;;;;;;3.05;2.28;;;6.90;99.40;;;;;;5005733;28;20048;-66
2022/04/20 03:48:48;;;;;;;3.22;2.22;;;6.80;99.90;;;;;;5007921;28;20488;-66
2022/04/20 03:51:14;;;;;;;6.03;2.38;;;6.70;99.90;;;;;;5006301;28;20046;-66
2022/04/20 03:53:40;;;;;;;2.63;2.20;;;6.60;99.90;;;;;;4990168;28;20043;-66
2022/04/20 03:56:05;;;;;;;4.05;2.10;;;6.50;99.90;;;;;;5006808;28;20081;-66
2022/04/20 03:58:31;;;;;;;4.10;2.15;;;6.40;99.90;;;;;;5006400;28;20077;-66
2022/04/20 04:00:57;;;;;;;2.92;2.00;;;6.30;99.90;;;;;;5006927;28;20088;-66
2022/04/20 04:03:22;;;;;;;2.95;2.22;;;6.20;99.90;;;;;;5007098;28;20491;-66
2022/04/20 04:05:48;;;;;;;2.30;2.10;;;6.10;99.90;;;;;;4990127;28;20073;-66
2022/04/20 04:08:14;;;;;;;2.10;2.00;;;6.10;99.90;;;;;;5005078;28;20115;-66
2022/04/20 04:10:40;;;;;;;3.90;2.40;;;6.00;99.90;;;;;;5007460;28;20041;-66
2022/04/20 04:13:06;;;;;;;4.43;2.10;;;6.00;99.90;;;;;;5002298;28;20137;-65
2022/04/20 04:15:33;;;;;;;3.00;2.33;;;6.00;99.90;;;;;;4986253;28;20054;-66
2022/04/20 04:17:59;;;;;;;6.95;2.25;;;5.90;99.90;;;;;;4954268;28;20065;-65
2022/04/20 04:20:29;;;;;;;5.38;2.10;;;5.90;99.90;;;;;;4987383;28;20586;-66
2022/04/20 04:22:55;;;;;;;4.27;2.33;;;5.90;99.90;;;;;;5001035;28;20045;-66
2022/04/20 04:25:21;;;;;;;3.53;2.50;;;5.90;99.90;;;;;;5006456;28;20046;-65
2022/04/20 04:27:47;;;;;;;2.97;2.10;;;6.00;99.90;;;;;;4989717;28;20096;-66
2022/04/20 04:30:13;;;;;;;2.60;2.17;;;5.90;99.90;;;;;;4988412;28;20038;-66
2022/04/20 04:32:39;;;;;;;3.17;2.10;;;6.00;99.90;;;;;;5002162;28;20125;-65
2022/04/20 04:35:08;;;;;;;4.30;2.22;;;5.90;99.90;;;;;;4985578;28;20367;-65
2022/04/20 04:37:34;;;;;;;2.50;2.20;;;5.90;99.90;;;;;;4986068;28;20046;-65
2022/04/20 04:40:01;;;;;;;4.75;2.60;;;5.90;99.90;;;;;;4979591;28;20082;-66
2022/04/20 04:42:27;;;;;;;4.47;2.35;;;5.90;99.90;;;;;;4967506;28;20038;-65
2022/04/20 04:44:53;;;;;;;5.70;2.50;;;5.90;99.90;;;;;;4969600;28;20054;-65
2022/04/20 04:50:04;;;;;;;2.58;2.40;;;6.00;99.90;;;;;;4970154;28;20042;-66
2022/04/20 04:52:31;;;;;;;4.53;2.60;;;6.00;99.90;;;;;;4969095;28;20081;-66
2022/04/20 04:54:57;;;;;;;7.18;2.40;;;6.00;99.90;;;;;;4987037;28;20038;-65
2022/04/20 04:57:23;;;;;;;8.73;2.70;;;6.10;99.90;;;;;;4986381;28;20053;-65
2022/04/20 04:59:49;;;;;;;6.75;2.15;;;6.00;99.90;;;;;;4987078;28;20043;-65
2022/04/20 05:02:14;;;;;;;5.57;2.50;;;6.10;99.90;;;;;;4984956;28;20074;-65
2022/04/20 05:04:43;;;;;;;5.50;2.67;;;6.10;99.90;;;;;;4986225;28;20046;-65
2022/04/20 05:07:09;;;;;;;3.28;2.63;;;6.10;99.90;;;;;;4987517;28;20064;-65
2022/04/20 05:09:35;;;;;;;4.72;2.83;;;6.10;99.90;;;;;;4986507;28;20113;-66
2022/04/20 05:12:01;;;;;;;6.28;2.53;;;6.10;99.90;;;;;;4987222;28;20488;-65
2022/04/20 05:14:27;;;;;;;3.92;2.65;;;6.10;99.90;;;;;;4952808;28;20477;-66
2022/04/20 05:16:55;;;;;;;5.93;2.70;;;6.10;99.90;;;;;;4987155;28;20505;-66
2022/04/20 05:19:21;;;;;;;3.30;2.50;;;6.10;99.90;;;;;;4986690;28;20050;-65
2022/04/20 05:21:48;;;;;;;7.68;3.03;;;6.20;99.90;;;;;;4986073;28;20382;-65
2022/04/20 05:24:14;;;;;;;8.75;3.10;;;6.30;99.90;;;;;;4969263;28;20050;-65
2022/04/20 05:26:40;;;;;;;3.22;2.45;;;6.30;99.90;;;;;;4968412;28;20393;-65
2022/04/20 05:29:06;;;;;;;8.32;3.00;;;6.30;99.90;;;;;;4987059;28;20061;-65
2022/04/20 05:31:32;;;;;;;5.22;3.00;;;6.40;99.90;;;;;;4984004;28;20262;-65
2022/04/20 05:33:58;;;;;;;3.33;2.88;;;6.50;99.90;;;;;;4969052;28;20137;-66
2022/04/20 05:36:23;;;;;;;6.40;2.90;;;6.50;99.90;;;;;;4952201;28;20042;-66
2022/04/20 05:41:51;;;;;;;5.45;2.95;;;6.60;99.90;;;;;;5138923;27;20543;-65
2022/04/20 05:44:17;;;;;;;5.80;3.35;;;6.80;99.90;;;;;;5105258;28;20052;-65
2022/04/20 05:46:43;;;;;;;4.53;2.80;;;6.90;99.90;;;;;;5106573;28;20451;-65
2022/04/20 05:49:09;;;;;;;7.82;3.17;;;7.00;99.90;;;;;;5106103;28;20101;-65
2022/04/20 05:51:34;;;;;;;9.30;3.35;;;7.00;99.90;;;;;;5098222;28;20090;-65
2022/04/20 05:54:00;;;;;;;4.85;2.97;;;7.00;99.90;;;;;;5102609;28;20092;-65
2022/04/20 05:56:26;;;;;;;4.22;2.90;;;7.00;99.90;;;;;;5103954;28;20054;-65
2022/04/20 05:58:52;;;;;;;5.63;2.90;;;6.90;99.90;;;;;;5097785;28;20119;-66
2022/04/20 06:01:19;;;;;;;6.45;3.25;;;7.00;99.90;;;;;;5104197;28;20147;-65
2022/04/20 06:03:45;;;;;;;9.35;3.40;;;7.10;99.90;;;;;;5115621;28;20047;-65
2022/04/20 06:06:12;;;;;;;4.55;3.20;;;7.50;99.90;;;;;;5087244;28;20559;-65
2022/04/20 06:08:38;;;;;;;4.68;2.95;;;8.20;99.90;;;;;;5102669;28;20161;-65
2022/04/20 06:11:04;;;;;;;4.60;3.00;;;8.50;99.50;;;;;;5104249;28;20737;-65
2022/04/20 06:13:30;;;;;;;4.15;2.95;;;8.50;97.70;;;;;;5102402;28;20050;-65
2022/04/20 06:15:56;;;;;;;3.05;2.58;;;8.40;97.90;;;;;;5104203;28;20039;-65
2022/04/20 06:18:22;;;;;;;5.95;3.13;;;8.40;97.10;;;;;;5103858;28;20038;-65
2022/04/20 06:20:47;;;;;;;11.43;3.00;;;8.50;95.80;;;;;;5104736;28;20126;-65
2022/04/20 06:23:14;;;;;;;7.78;3.60;;;8.90;95.30;;;;;;5102963;28;20136;-64
2022/04/20 06:25:40;;;;;;;5.63;2.92;;;9.20;90.30;;;;;;5114045;28;20050;-64
2022/04/20 06:28:06;;;;;;;3.85;3.00;;;9.60;89.30;;;;;;5124331;27;20456;-64
2022/04/20 06:30:32;;;;;;;3.00;2.42;;;9.90;85.40;;;;;;5124193;27;20070;-64
2022/04/20 06:32:58;;;;;;;5.90;3.13;;;10.10;85.70;;;;;;5106639;27;20438;-64
2022/04/20 06:35:24;;;;;;;4.75;2.42;;;10.00;82.60;;;;;;5103151;28;20531;-64
2022/04/20 06:37:50;;;;;;;3.55;2.85;;;9.90;85.90;;;;;;5105130;28;20134;-64
2022/04/20 06:40:16;;;;;;;5.18;2.47;;;9.70;82.40;;;;;;5102487;28;20056;-65
2022/04/20 06:42:42;;;;;;;6.60;2.60;;;9.60;86.00;;;;;;5102254;28;20421;-64
2022/04/20 06:45:09;;;;;;;4.50;2.65;;;9.50;85.90;;;;;;5104001;28;20107;-64
2022/04/20 06:47:35;;;;;;;4.35;2.72;;;9.30;85.80;;;;;;5110657;28;20132;-65
2022/04/20 06:50:01;;;;;;;5.10;2.63;;;9.30;89.80;;;;;;5085306;28;20036;-65
2022/04/20 07:00:40;;;;;;;3.67;2.42;;;9.50;83.30;;;;;;5077695;28;20055;-64
2022/04/20 07:03:09;;;;;;;4.13;2.38;;;9.60;82.30;;;;;;5070193;28;20406;-65
2022/04/20 07:05:36;;;;;;;3.70;2.30;;;9.90;87.00;;;;;;5081737;28;20086;-65
2022/04/20 07:08:02;;;;;;;4.43;2.15;;;10.10;72.80;;;;;;5087870;28;20044;-64
2022/04/20 07:10:28;;;;;;;5.55;2.05;;;10.30;78.10;;;;;;5089699;28;20344;-64
2022/04/20 07:12:54;;;;;;;6.70;2.05;;;10.40;69.30;;;;;;5099809;28;20044;-64
2022/04/20 07:15:20;;;;;;;5.65;2.33;;;10.60;70.70;;;;;;5088157;28;20123;-65
2022/04/20 07:17:46;;;;;;;2.00;1.90;;;10.70;68.60;;;;;;5087798;28;20079;-65
2022/04/20 07:20:17;;;;;;;4.70;2.15;;;10.80;61.10;;;;;;5095554;28;20044;-64
2022/04/20 07:22:44;;;;;;;2.25;1.70;;;10.80;61.30;;;;;;5107969;28;20047;-64
2022/04/20 07:25:09;;;;;;;4.65;1.67;;;10.80;63.20;;;;;;5108263;28;20150;-65
2022/04/20 07:27:35;;;;;;;1.92;1.67;;;10.90;60.30;;;;;;5108359;28;20118;-64
2022/04/20 07:30:01;;;;;;;4.32;2.13;;;11.10;58.60;;;;;;5091312;28;20046;-64
2022/04/20 07:32:27;;;;;;;1.83;1.70;;;11.20;55.70;;;;;;5093269;28;20390;-65
2022/04/20 07:34:52;;;;;;;4.20;2.38;;;11.30;51.00;;;;;;5087009;28;20113;-64
2022/04/20 07:37:18;;;;;;;7.85;2.28;;;11.50;48.50;;;;;;5088089;28;20127;-65
2022/04/20 07:39:44;;;;;;;2.20;1.88;;;11.50;44.10;;;;;;5068534;28;20052;-65
2022/04/20 07:42:09;;;;;;;2.28;1.77;;;11.50;50.70;;;;;;5090442;28;20489;-65
2022/04/20 07:44:35;;;;;;;3.67;1.67;;;11.80;49.60;;;;;;5086096;28;20048;-64
2022/04/20 07:47:00;;;;;;;2.03;1.70;;;12.00;50.10;;;;;;5088190;28;20032;-64
2022/04/20 07:52:10;;;;;;;2.28;1.80;;;12.40;39.10;;;;;;5084770;28;20051;-65
2022/04/20 07:54:36;;;;;;;2.67;1.70;;;12.50;40.30;;;;;;5068375;28;20546;-65
2022/04/20 07:57:02;;;;;;;3.72;1.67;;;12.60;28.80;;;;;;5066489;28;20040;-64
2022/04/20 07:59:27;;;;;;;1.90;1.60;;;12.60;28.80;;;;;;5083170;28;20131;-65
2022/04/20 08:01:53;;;;;;;2.10;1.73;;;12.70;34.00;;;;;;5076126;28;20048;-64
2022/04/20 08:04:19;;;;;;;3.95;1.50;;;12.70;33.10;;;;;;5084481;28;20132;-64
2022/04/20 08:06:46;;;;;;;1.50;1.40;;;12.90;30.70;;;;;;5085463;28;20040;-64
2022/04/20 08:09:11;;;;;;;2.55;1.50;;;13.00;28.70;;;;;;5086912;28;20044;-64
2022/04/20 08:11:37;;;;;;;1.52;1.20;;;13.00;24.30;;;;;;5084956;28;20058;-64
2022/04/20 08:14:12;;;;;;;2.40;1.67;;;13.00;23.10;;;;;;5084177;28;20036;-65
2022/04/20 08:16:38;;;;;;;2.65;1.42;;;13.20;28.10;;;;;;5083637;28;20452;-64
2022/04/20 08:19:04;;;;;;;4.50;1.70;;;13.20;25.70;;;;;;5086176;28;20040;-64
2022/04/20 08:21:30;;;;;;;9.55;1.90;;;13.20;25.00;;;;;;5086953;28;20490;-64
2022/04/20 08:23:56;;;;;;;1.80;1.48;;;13.30;23.60;;;;;;5080035;28;20051;-64
2022/04/20 08:26:22;;;;;;;1.35;1.27;;;13.30;18.90;;;;;;5080796;28;20078;-64
2022/04/20 08:28:48;;;;;;;2.35;1.40;;;13.40;21.50;;;;;;5072809;28;20502;-65
2022/04/20 08:31:17;;;;;;;3.25;1.52;;;13.50;21.40;;;;;;5070035;28;20458;-64
2022/04/20 08:33:43;;;;;;;1.92;1.73;;;13.40;25.40;;;;;;5083830;28;20041;-65
2022/04/20 08:36:12;;;;;;;4.25;1.80;;;13.50;24.10;;;;;;5098618;27;20036;-64
2022/04/20 08:38:38;;;;;;;1.77;1.50;;;13.70;25.10;;;;;;5066761;28;20056;-64
2022/04/20 08:41:05;;;;;;;3.55;1.48;;;13.60;22.20;;;;;;5098793;28;20063;-64
2022/04/20 08:43:32;;;;;;;1.95;1.60;;;13.60;21.70;;;;;;5070134;28;20402;-65
2022/04/20 08:46:01;;;;;;;1.52;1.42;;;13.50;21.10;;;;;;5106254;28;20048;-64
2022/04/20 08:48:28;;;;;;;1.77;1.38;;;13.50;20.10;;;;;;5076371;28;20379;-64
2022/04/20 08:50:54;;;;;;;3.40;1.60;;;13.60;22.00;;;;;;5067292;28;20089;-64
2022/04/20 08:53:21;;;;;;;1.67;1.42;;;13.50;22.00;;;;;;5065897;28;20571;-65
2022/04/20 08:55:47;;;;;;;1.48;1.38;;;13.50;21.60;;;;;;5086602;28;20075;-65
2022/04/20 08:58:15;;;;;;;1.48;1.30;;;13.70;19.30;;;;;;5084563;28;20082;-65
2022/04/20 09:00:41;;;;;;;5.90;1.40;;;13.70;19.50;;;;;;5086775;28;20044;-65
2022/04/20 09:03:07;;;;;;;3.70;1.50;;;13.80;19.60;;;;;;5085806;28;20051;-64
2022/04/20 09:05:34;;;;;;;1.50;1.30;;;13.90;18.70;;;;;;5087214;28;20081;-65
2022/04/20 09:08:11;;;;;;;1.40;1.30;;;14.10;18.10;;;;;;5087385;28;20044;-65
2022/04/20 09:10:37;;;;;;;2.25;1.40;;;14.20;23.00;;;;;;5085687;28;20055;-65
2022/04/20 09:13:10;;;;;;;2.58;1.55;;;14.20;18.00;;;;;;5087485;28;20040;-67
2022/04/20 09:15:38;;;;;;;2.85;1.27;;;14.20;17.30;;;;;;5086817;28;20170;-66
2022/04/20 09:18:06;;;;;;;1.70;1.40;;;14.20;18.20;;;;;;5084683;28;20089;-65
2022/04/20 09:20:34;;;;;;;2.70;1.50;;;14.30;18.40;;;;;;5085450;28;20105;-65
2022/04/20 09:23:08;;;;;;;4.15;1.20;;;14.40;18.10;;;;;;5086096;28;20052;-65
2022/04/20 09:25:40;;;;;;;1.65;1.00;;;14.60;16.40;;;;;;5068611;28;20135;-65
2022/04/20 09:28:09;;;;;;;2.83;1.30;;;14.50;17.80;;;;;;5086423;28;20425;-66
2022/04/20 09:30:40;;;;;;;1.80;1.27;;;14.80;16.90;;;;;;5082508;28;20049;-64
2022/04/20 09:33:07;;;;;;;1.67;1.35;;;14.80;16.60;;;;;;5086305;28;20404;-65
2022/04/20 09:35:43;;;;;;;1.85;1.08;;;14.80;17.00;;;;;;5086587;28;20051;-65
2022/04/20 09:38:09;;;;;;;1.30;1.20;;;14.90;15.60;;;;;;5087214;28;20410;-65
2022/04/20 09:40:40;;;;;;;3.65;1.02;;;14.80;16.00;;;;;;5084187;28;20044;-65
2022/04/20 09:43:13;;;;;;;4.10;1.25;;;14.80;15.20;;;;;;5084906;28;20044;-65
2022/04/20 09:45:39;;;;;;;1.48;1.17;;;14.80;16.50;;;;;;5084656;28;20100;-65
2022/04/20 09:51:14;;;;;;;2.58;0.80;;;14.90;15.70;;;;;;5085457;28;20040;-66
2022/04/20 09:53:41;;;;;;;0.80;0.80;;;15.00;16.70;;;;;;5084936;28;20059;-65
2022/04/20 09:56:20;;;;;;;1.80;1.00;;;15.20;14.70;;;;;;5086747;28;20394;-66
2022/04/20 09:58:47;;;;;;;1.13;0.90;;;15.30;17.60;;;;;;5068733;28;20444;-65
2022/04/20 10:01:31;;;;;;;1.67;1.05;;;15.50;13.20;;;;;;5069892;28;20702;-65
2022/04/20 10:03:59;;;;;;;5.18;1.20;;;15.40;14.00;;;;;;5084906;28;20463;-65
2022/04/20 10:06:26;;;;;;;2.65;1.00;;;15.50;13.50;;;;;;5085259;28;20040;-65
2022/04/20 10:08:52;;;;;;;6.80;0.90;;;15.60;11.70;;;;;;5087253;28;20054;-65
2022/04/20 10:11:22;;;;;;;1.60;0.90;;;15.70;10.30;;;;;;5083686;28;20066;-66
2022/04/20 10:16:05;;;;;;;1.00;0.90;;;15.70;11.70;;;;;;5084505;28;20052;-65
2022/04/20 10:16:39;;;;;;;1.20;1.10;;;15.60;13.60;;;;;;5085736;28;20095;-65
2022/04/20 10:19:08;;;;;;;3.58;0.80;;;15.70;12.30;;;;;;5084619;28;20040;-66
2022/04/20 10:21:48;;;;;;;1.95;0.82;;;15.70;12.70;;;;;;5086132;28;20044;-66
2022/04/20 10:24:24;;;;;;;1.08;0.60;;;15.70;13.00;;;;;;5084500;28;20040;-65
2022/04/20 10:26:51;;;;;;;1.10;0.73;;;15.80;12.40;;;;;;5084811;28;20044;-66
2022/04/20 10:29:39;;;;;;;0.68;0.65;;;15.90;10.50;;;;;;5088662;28;20044;-65
2022/04/20 10:32:09;;;;;;;3.03;0.63;;;16.00;11.20;;;;;;5080853;28;20093;-65
2022/04/20 10:34:35;;;;;;;;;;;16.10;11.70;;;;;;5085548;28;20036;-65
2022/04/20 10:37:03;;;;;;;1.35;0.90;;;16.20;10.50;;;;;;5069534;28;19927;-65
2022/04/20 10:39:36;;;;;;;3.30;0.50;;;16.10;9.60;;;;;;5089891;28;20044;-65
2022/04/20 10:42:12;;;;;;;0.63;0.57;;;16.10;10.50;;;;;;5108703;28;20067;-65
2022/04/20 10:44:57;;;;;;;1.00;0.60;;;16.30;10.20;;;;;;5109906;28;20047;-65
2022/04/20 10:47:42;;;;;;;1.40;0.50;;;16.20;11.20;;;;;;5092385;28;20124;-65
2022/04/20 10:50:22;;;;;;;4.10;0.57;;;16.20;12.40;;;;;;5072171;28;20071;-65
2022/04/20 10:53:06;;;;;;;2.28;0.65;;;16.20;11.30;;;;;;5108394;28;20048;-65
2022/04/20 10:55:32;;;;;;;2.58;0.70;;;16.30;11.50;;;;;;5093232;28;20086;-65
2022/04/20 10:58:03;;;;;;;1.55;0.60;;;16.50;9.80;;;;;;5067162;28;20075;-65
2022/04/20 11:00:36;;;;;;;0.63;0.50;;;16.40;10.30;;;;;;5083230;28;20101;-65
2022/04/20 11:03:05;;;;;;;1.50;0.70;;;16.50;11.60;;;;;;5102803;27;20122;-65
2022/04/20 11:05:33;;;;;;;0.55;0.47;;;16.40;11.20;;;;;;5085297;28;20032;-65
2022/04/20 11:08:06;;;;;;;1.10;0.50;;;16.50;11.90;;;;;;5087664;28;20036;-65
2022/04/20 11:10:34;;;;;;;3.38;0.55;;;16.40;13.70;;;;;;5088280;28;20128;-65
2022/04/20 11:19:06;;;;;;;2.50;0.85;;;16.70;12.60;;;;;;5088354;28;20048;-68
2022/04/20 11:21:33;;;;;;;1.02;0.93;;;16.70;12.10;;;;;;5089902;28;20075;-67
2022/04/20 11:24:07;;;;;;;2.60;0.77;;;16.50;11.40;;;;;;5095582;28;20144;-68
2022/04/20 11:26:39;;;;;;;0.73;0.70;;;16.50;15.60;;;;;;5087427;28;20141;-68
2022/04/20 11:29:08;;;;;;;1.95;1.38;;;16.40;13.90;;;;;;5086955;28;20378;-68
2022/04/20 11:31:36;;;;;;;2.38;0.63;;;16.50;16.10;;;;;;5079544;28;20044;-68
2022/04/20 11:34:03;;;;;;;6.05;0.80;;;16.70;13.80;;;;;;5070073;28;20498;-68
2022/04/20 11:36:28;;;;;;;2.72;0.90;;;16.70;10.10;;;;;;5083150;28;20042;-68
2022/04/20 11:38:54;;;;;;;3.80;0.80;;;16.80;10.70;;;;;;5087761;28;20047;-67
2022/04/20 11:41:20;;;;;;;0.50;0.50;;;16.80;11.80;;;;;;5085545;28;20566;-68
2022/04/20 11:43:49;;;;;;;3.50;0.80;;;16.70;13.30;;;;;;5078321;28;20045;-68
2022/04/20 11:46:16;;;;;;;2.97;0.60;;;16.80;12.40;;;;;;5066774;28;20033;-68
2022/04/20 11:48:51;;;;;;;8.55;1.48;;;16.80;12.50;;;;;;5064652;28;20048;-68
2022/04/20 11:51:23;;;;;;;0.75;0.75;;;16.80;12.70;;;;;;5078395;28;20062;-68
2022/04/20 11:53:49;;;;;;;0.90;0.52;;;16.80;14.00;;;;;;5085750;28;20044;-68
2022/04/20 11:56:15;;;;;;;1.17;0.80;;;16.70;11.50;;;;;;5086825;28;20048;-67
2022/04/20 11:58:48;;;;;;;0.70;0.70;;;16.90;13.60;;;;;;5087151;28;20036;-68
2022/04/20 12:01:15;;;;;;;4.38;0.70;;;16.80;11.20;;;;;;5088308;28;20173;-68
2022/04/20 12:03:43;;;;;;;2.25;1.00;;;16.90;14.00;;;;;;5087188;28;20071;-67
2022/04/20 12:06:11;;;;;;;4.18;1.23;;;16.90;15.30;;;;;;5086937;28;20436;-67
2022/04/20 12:08:40;;;;;;;0.70;0.70;;;17.00;14.10;;;;;;5085976;28;20048;-68
2022/04/20 12:11:09;;;;;;;0.95;0.70;;;17.00;13.10;;;;;;5085942;28;20044;-68
2022/04/20 12:13:36;;;;;;;0.95;0.95;;;17.10;14.50;;;;;;5086809;28;20040;-68
2022/04/20 12:16:08;;;;;;;0.93;0.93;;;17.00;13.20;;;;;;5081557;28;20044;-67
2022/04/20 12:18:45;;;;;;;1.92;0.90;;;17.00;13.90;;;;;;5065717;28;20094;-68
2022/04/20 12:21:48;;;;;;;0.95;0.95;;;17.10;14.00;;;;;;5081674;28;20051;-69
2022/04/20 12:24:21;;;;;;;3.22;0.80;;;17.00;11.80;;;;;;5082600;28;20067;-68
2022/04/20 12:26:49;;;;;;;5.20;1.10;;;17.00;11.30;;;;;;5101234;27;20397;-68
2022/04/20 12:29:19;;;;;;;1.42;1.23;;;16.90;13.80;;;;;;5066282;28;20044;-68
2022/04/20 12:31:49;;;;;;;1.73;1.20;;;17.00;12.00;;;;;;5075845;28;20481;-68
2022/04/20 12:34:17;;;;;;;1.25;1.10;;;16.90;12.60;;;;;;5081456;28;20552;-68
2022/04/20 12:36:58;;;;;;;2.55;1.48;;;17.00;10.70;;;;;;5101879;28;20114;-68
2022/04/20 12:39:27;;;;;;;3.97;1.42;;;16.80;12.40;;;;;;5106277;28;20044;-68
2022/04/20 12:42:04;;;;;;;1.17;1.05;;;17.00;16.70;;;;;;5103988;28;20051;-68
2022/04/20 12:44:36;;;;;;;1.55;1.13;;;17.20;18.90;;;;;;5105935;28;20118;-68
2022/04/20 12:47:10;;;;;;;3.33;1.33;;;17.20;14.20;;;;;;5088720;28;20119;-68
2022/04/20 12:49:39;;;;;;;3.20;1.42;;;17.20;14.60;;;;;;5084820;28;20059;-68
2022/04/20 12:52:17;;;;;;;1.77;1.38;;;17.10;13.60;;;;;;5077096;28;20119;-67
2022/04/20 12:54:57;;;;;;;2.72;1.52;;;17.10;13.90;;;;;;5074952;28;20044;-68
2022/04/20 13:03:10;;;;;;;4.15;1.60;;;17.20;13.80;;;;;;5081822;28;20132;-68
2022/04/20 13:05:37;;;;;;;2.08;1.63;;;17.20;14.50;;;;;;5068733;28;20086;-68
2022/04/20 13:08:04;;;;;;;2.00;1.38;;;17.00;12.40;;;;;;5066163;28;20058;-68
2022/04/20 13:10:31;;;;;;;1.55;1.45;;;17.10;14.30;;;;;;5085607;28;20048;-69
2022/04/20 13:12:57;;;;;;;1.20;1.10;;;17.10;15.70;;;;;;5083203;28;20125;-68
2022/04/20 13:15:24;;;;;;;2.55;1.40;;;17.10;14.40;;;;;;5066971;28;20087;-68
2022/04/20 13:17:51;;;;;;;1.95;1.58;;;17.20;13.10;;;;;;5082846;28;20486;-68
2022/04/20 13:20:18;;;;;;;2.90;1.95;;;17.10;14.10;;;;;;5082660;28;20497;-69
2022/04/20 13:22:45;;;;;;;3.17;1.38;;;17.10;14.80;;;;;;5083326;28;20056;-69
2022/04/20 13:27:55;;;;;;;2.00;1.50;;;17.10;13.20;;;;;;5080107;28;20059;-68
2022/04/20 13:30:21;;;;;;;6.38;1.63;;;17.20;15.40;;;;;;5072051;28;20051;-68
2022/04/20 13:32:50;;;;;;;4.22;3.08;;;17.10;15.10;;;;;;5081437;28;20081;-67
2022/04/20 13:35:16;;;;;;;6.57;4.53;;;17.20;17.10;;;;;;5084262;28;20079;-67